createdAt,value
2023-01-08T00:01:22.541Z,71.54
2023-01-08T00:03:50.512Z,71.05
2023-01-08T00:06:21.536Z,71.34
2023-01-08T00:08:49.634Z,71.20
2023-01-08T00:11:17.437Z,71.77
2023-01-08T00:13:45.388Z,71.91
2023-01-08T00:16:13.282Z,71.39
2023-01-08T00:18:41.207Z,71.95
2023-01-08T00:21:09.454Z,72.89
2023-01-08T00:23:37.257Z,73.78
2023-01-08T00:26:05.085Z,74.52
2023-01-08T00:28:33.337Z,74.47
2023-01-08T00:31:03.572Z,75.37
2023-01-08T00:33:32.143Z,75.07
2023-01-08T00:35:59.875Z,75.38
2023-01-08T00:38:27.618Z,75.34
2023-01-08T00:40:55.410Z,75.22
2023-01-08T00:43:23.430Z,75.27
2023-01-08T00:45:54.028Z,74.87
2023-01-08T00:48:22.606Z,75.21
2023-01-08T00:50:50.441Z,75.26
2023-01-08T00:53:18.229Z,75.17
2023-01-08T00:55:46.027Z,75.01
2023-01-08T00:58:14.117Z,74.70
2023-01-08T01:00:41.807Z,74.88
2023-01-08T01:03:09.589Z,74.75
2023-01-08T01:05:37.346Z,75.31
2023-01-08T01:08:05.351Z,75.18
2023-01-08T01:10:33.373Z,74.78
2023-01-08T01:13:01.638Z,75.43
2023-01-08T01:15:29.263Z,74.90
2023-01-08T01:17:57.051Z,74.91
2023-01-08T01:20:25.070Z,75.32
2023-01-08T01:22:53.161Z,75.64
2023-01-08T01:25:20.978Z,75.15
2023-01-08T01:27:48.838Z,75.23
2023-01-08T01:30:16.702Z,75.00
2023-01-08T01:32:44.593Z,75.20
2023-01-08T01:35:13.155Z,75.04
2023-01-08T01:37:40.919Z,75.02
2023-01-08T01:40:08.593Z,74.78
2023-01-08T01:42:44.031Z,74.81
2023-01-08T01:45:11.787Z,74.95
2023-01-08T01:47:39.821Z,74.76
2023-01-08T01:50:07.583Z,74.86
2023-01-08T01:52:35.252Z,74.49
2023-01-08T01:55:02.984Z,74.93
2023-01-08T01:57:30.620Z,75.23
2023-01-08T01:59:58.752Z,74.72
2023-01-08T02:02:26.471Z,75.03
2023-01-08T02:04:54.252Z,74.72
2023-01-08T02:07:21.883Z,75.27
2023-01-08T02:09:49.814Z,75.09
2023-01-08T02:12:20.605Z,74.87
2023-01-08T02:14:48.221Z,74.95
2023-01-08T02:17:15.824Z,74.66
2023-01-08T02:19:43.500Z,74.97
2023-01-08T02:22:11.143Z,74.63
2023-01-08T02:24:39.158Z,75.01
2023-01-08T02:27:06.867Z,74.72
2023-01-08T02:29:34.519Z,75.23
2023-01-08T02:32:02.126Z,75.27
2023-01-08T02:34:32.248Z,74.98
2023-01-08T02:37:00.220Z,75.30
2023-01-08T02:39:28.290Z,75.15
2023-01-08T02:41:56.043Z,75.90
2023-01-08T02:44:23.682Z,75.75
2023-01-08T02:46:51.557Z,75.71
2023-01-08T02:49:19.735Z,75.96
2023-01-08T02:51:47.337Z,75.74
2023-01-08T02:54:14.912Z,75.93
2023-01-08T02:56:42.594Z,76.07
2023-01-08T02:59:10.239Z,76.33
2023-01-08T03:01:38.746Z,76.47
2023-01-08T03:04:06.474Z,76.51
2023-01-08T03:06:34.166Z,76.89
2023-01-08T03:09:01.751Z,77.28
2023-01-08T03:11:29.399Z,77.47
2023-01-08T03:13:57.378Z,77.39
2023-01-08T03:16:25.066Z,77.27
2023-01-08T03:18:52.804Z,77.56
2023-01-08T03:21:20.476Z,77.24
2023-01-08T03:23:49.667Z,77.93
2023-01-08T03:26:17.682Z,77.46
2023-01-08T03:28:45.321Z,77.03
2023-01-08T03:31:13.041Z,76.92
2023-01-08T03:33:40.728Z,77.21
2023-01-08T03:36:08.329Z,76.88
2023-01-08T03:38:36.293Z,76.98
2023-01-08T03:41:03.916Z,76.64
2023-01-08T03:43:31.511Z,77.14
2023-01-08T03:45:59.564Z,76.71
2023-01-08T03:48:27.461Z,76.85
2023-01-08T03:50:55.543Z,76.97
2023-01-08T03:53:25.394Z,77.31
2023-01-08T03:55:53.089Z,77.31
2023-01-08T03:58:20.692Z,78.08
2023-01-08T04:00:48.561Z,77.40
2023-01-08T04:03:16.218Z,77.78
2023-01-08T04:05:44.102Z,77.63
2023-01-08T04:08:12.116Z,77.49
2023-01-08T04:10:39.789Z,77.93
2023-01-08T04:13:07.581Z,77.91
2023-01-08T04:15:35.955Z,78.26
2023-01-08T04:18:03.625Z,77.39
2023-01-08T04:20:31.256Z,77.80
2023-01-08T04:22:58.836Z,77.39
2023-01-08T04:25:26.722Z,77.91
2023-01-08T04:27:54.743Z,78.04
2023-01-08T04:30:22.804Z,77.78
2023-01-08T04:32:50.491Z,78.36
2023-01-08T04:35:18.114Z,77.58
2023-01-08T04:37:45.742Z,77.75
2023-01-08T04:40:13.901Z,78.04
2023-01-08T04:42:41.536Z,77.52
2023-01-08T04:45:09.111Z,78.07
2023-01-08T04:47:36.827Z,77.59
2023-01-08T04:50:04.592Z,77.77
2023-01-08T04:52:33.029Z,77.93
2023-01-08T04:55:00.648Z,78.03
2023-01-08T04:57:28.216Z,77.92
2023-01-08T04:59:55.777Z,78.24
2023-01-08T05:02:23.615Z,78.21
2023-01-08T05:04:51.747Z,77.95
2023-01-08T05:07:19.335Z,78.37
2023-01-08T05:09:47.010Z,78.35
2023-01-08T05:12:14.629Z,78.61
2023-01-08T05:14:43.357Z,78.73
2023-01-08T05:17:11.517Z,78.46
2023-01-08T05:19:39.195Z,78.96
2023-01-08T05:22:06.769Z,78.76
2023-01-08T05:24:34.398Z,79.03
2023-01-08T05:27:02.035Z,78.98
2023-01-08T05:29:29.997Z,79.19
2023-01-08T05:31:57.714Z,79.01
2023-01-08T05:34:25.371Z,79.39
2023-01-08T05:36:53.364Z,79.44
2023-01-08T05:39:21.025Z,79.35
2023-01-08T05:41:48.809Z,79.83
2023-01-08T05:44:16.388Z,80.07
2023-01-08T05:46:44.132Z,79.85
2023-01-08T05:49:11.749Z,79.88
2023-01-08T05:51:39.639Z,80.64
2023-01-08T05:54:07.629Z,80.33
2023-01-08T05:56:35.316Z,80.47
2023-01-08T05:59:02.919Z,80.57
2023-01-08T06:01:30.623Z,80.58
2023-01-08T06:03:59.095Z,80.84
2023-01-08T06:06:27.099Z,80.34
2023-01-08T06:08:54.711Z,80.33
2023-01-08T06:11:22.307Z,80.17
2023-01-08T06:13:49.931Z,80.39
2023-01-08T06:16:18.256Z,80.08
2023-01-08T06:18:46.083Z,79.55
2023-01-08T06:21:13.752Z,79.69
2023-01-08T06:23:41.426Z,79.71
2023-01-08T06:26:09.033Z,79.67
2023-01-08T06:28:36.826Z,79.12
2023-01-08T06:31:04.879Z,78.90
2023-01-08T06:33:32.530Z,79.27
2023-01-08T06:36:00.142Z,79.27
2023-01-08T06:38:27.898Z,79.47
2023-01-08T06:40:57.109Z,80.13
2023-01-08T06:43:25.067Z,79.43
2023-01-08T06:45:52.718Z,79.35
2023-01-08T06:48:20.332Z,79.40
2023-01-08T06:50:47.962Z,79.91
2023-01-08T06:53:15.602Z,79.57
2023-01-08T06:55:43.595Z,79.77
2023-01-08T06:58:12.280Z,79.86
2023-01-08T07:00:39.963Z,80.13
2023-01-08T07:03:08.167Z,80.17
2023-01-08T07:05:35.878Z,79.57
2023-01-08T07:08:03.915Z,79.71
2023-01-08T07:10:31.678Z,79.75
2023-01-08T07:12:59.292Z,79.57
2023-01-08T07:15:26.949Z,79.66
2023-01-08T07:17:54.582Z,79.33
2023-01-08T07:20:22.557Z,79.69
2023-01-08T07:22:50.221Z,80.01
2023-01-08T07:25:18.287Z,79.71
2023-01-08T07:27:45.881Z,79.67
2023-01-08T07:30:28.337Z,79.74
2023-01-08T07:32:57.626Z,79.49
2023-01-08T07:35:25.282Z,79.46
2023-01-08T07:37:52.942Z,79.25
2023-01-08T07:40:20.778Z,79.32
2023-01-08T07:42:48.455Z,79.15
2023-01-08T07:45:16.087Z,79.17
2023-01-08T07:47:43.658Z,78.34
2023-01-08T07:50:11.280Z,78.59
2023-01-08T07:52:38.966Z,78.77
2023-01-08T07:55:06.610Z,78.81
2023-01-08T07:57:34.597Z,78.88
2023-01-08T08:00:02.223Z,79.17
2023-01-08T08:02:30.064Z,79.67
2023-01-08T08:04:57.875Z,79.74
2023-01-08T08:07:26.001Z,80.36
2023-01-08T08:09:53.980Z,80.33
2023-01-08T08:12:21.635Z,80.72
2023-01-08T08:14:49.261Z,81.13
2023-01-08T08:17:16.916Z,81.29
2023-01-08T08:19:45.733Z,81.21
2023-01-08T08:22:13.747Z,81.41
2023-01-08T08:24:41.415Z,81.67
2023-01-08T08:27:09.070Z,81.80
2023-01-08T08:29:38.768Z,81.88
2023-01-08T08:32:06.385Z,81.85
2023-01-08T08:34:34.468Z,81.16
2023-01-08T08:37:02.123Z,80.90
2023-01-08T08:39:29.770Z,80.88
2023-01-08T08:41:57.525Z,80.64
2023-01-08T08:44:25.222Z,80.49
2023-01-08T08:46:53.322Z,80.25
2023-01-08T08:49:21.248Z,80.16
2023-01-08T08:51:49.481Z,80.49
2023-01-08T08:54:17.265Z,80.45
2023-01-08T08:56:45.124Z,80.23
2023-01-08T08:59:13.887Z,80.24
2023-01-08T09:01:41.736Z,79.85
2023-01-08T09:04:09.612Z,79.24
2023-01-08T09:06:37.553Z,79.22
2023-01-08T09:09:05.362Z,79.26
2023-01-08T09:11:33.458Z,79.28
2023-01-08T09:14:01.678Z,79.32
2023-01-08T09:16:29.423Z,79.07
2023-01-08T09:18:57.636Z,79.22
2023-01-08T09:21:25.300Z,78.89
2023-01-08T09:23:53.343Z,78.75
2023-01-08T09:26:21.093Z,78.30
2023-01-08T09:28:48.861Z,78.30
2023-01-08T09:31:16.952Z,78.07
2023-01-08T09:33:44.848Z,77.67
2023-01-08T09:36:13.516Z,77.80
2023-01-08T09:38:41.258Z,77.79
2023-01-08T09:41:09.338Z,77.99
2023-01-08T09:43:37.590Z,78.73
2023-01-08T09:46:05.482Z,78.37
2023-01-08T09:48:33.991Z,78.40
2023-01-08T09:51:01.730Z,78.01
2023-01-08T09:53:29.475Z,77.93
2023-01-08T09:56:09.228Z,77.40
2023-01-08T09:58:38.431Z,77.54
2023-01-08T10:01:06.499Z,76.94
2023-01-08T10:03:34.447Z,77.37
2023-01-08T10:06:02.479Z,77.57
2023-01-08T10:08:30.821Z,77.44
2023-01-08T10:10:59.045Z,77.64
2023-01-08T10:13:26.940Z,77.35
2023-01-08T10:15:54.814Z,77.61
2023-01-08T10:18:22.729Z,78.21
2023-01-08T10:20:51.004Z,78.18
2023-01-08T10:23:20.286Z,78.14
2023-01-08T10:25:48.324Z,77.39
2023-01-08T10:28:16.177Z,76.71
2023-01-08T10:30:44.318Z,75.91
2023-01-08T10:33:12.131Z,76.51
2023-01-08T10:35:40.295Z,76.56
2023-01-08T10:38:08.702Z,75.76
2023-01-08T10:40:36.502Z,76.34
2023-01-08T10:43:04.664Z,75.84
2023-01-08T10:45:32.702Z,75.26
2023-01-08T10:48:01.138Z,74.87
2023-01-08T10:50:29.038Z,73.78
2023-01-08T10:52:57.111Z,71.88
2023-01-08T10:55:25.210Z,69.85
2023-01-08T10:57:53.086Z,67.98
2023-01-08T11:00:21.870Z,66.32
2023-01-08T11:02:50.893Z,65.00
2023-01-08T11:05:18.731Z,64.89
2023-01-08T11:07:46.717Z,65.37
2023-01-08T11:10:14.729Z,65.76
2023-01-08T11:12:42.962Z,64.94
2023-01-08T11:15:10.952Z,64.69
2023-01-08T11:17:38.919Z,63.68
2023-01-08T11:20:07.695Z,64.40
2023-01-08T11:22:36.223Z,63.47
2023-01-08T11:25:04.247Z,62.67
2023-01-08T11:27:32.189Z,61.71
2023-01-08T11:30:00.284Z,62.36
2023-01-08T11:32:28.211Z,62.65
2023-01-08T11:34:56.152Z,62.05
2023-01-08T11:37:24.652Z,63.21
2023-01-08T11:39:52.406Z,64.38
2023-01-08T11:42:20.320Z,64.22
2023-01-08T11:44:49.692Z,63.54
2023-01-08T11:47:17.609Z,63.39
2023-01-08T11:49:45.785Z,62.26
2023-01-08T11:52:13.625Z,62.34
2023-01-08T11:54:41.506Z,62.71
2023-01-08T11:57:09.960Z,63.64
2023-01-08T11:59:38.064Z,65.31
2023-01-08T12:02:06.541Z,67.05
2023-01-08T12:04:34.330Z,67.25
2023-01-08T12:07:02.808Z,68.68
2023-01-08T12:09:31.193Z,68.64
2023-01-08T12:11:59.043Z,68.88
2023-01-08T12:14:28.248Z,69.34
2023-01-08T12:16:56.200Z,69.75
2023-01-08T12:19:24.146Z,70.25
2023-01-08T12:21:52.280Z,70.13
2023-01-08T12:24:20.131Z,69.71
2023-01-08T12:26:48.304Z,69.77
2023-01-08T12:29:16.761Z,69.67
2023-01-08T12:31:48.705Z,70.12
2023-01-08T12:34:26.032Z,70.46
2023-01-08T12:36:54.170Z,70.09
2023-01-08T12:39:22.023Z,70.58
2023-01-08T12:41:50.120Z,70.20
2023-01-08T12:44:18.005Z,70.01
2023-01-08T12:46:46.881Z,69.80
2023-01-08T12:49:15.202Z,70.31
2023-01-08T12:51:43.175Z,70.18
2023-01-08T12:54:11.062Z,70.40
2023-01-08T12:56:39.161Z,70.35
2023-01-08T12:59:07.291Z,70.59
2023-01-08T13:01:35.267Z,71.34
2023-01-08T13:04:04.645Z,70.80
2023-01-08T13:06:32.476Z,71.13
2023-01-08T13:09:01.622Z,71.47
2023-01-08T13:11:31.715Z,71.34
2023-01-08T13:13:59.694Z,71.61
2023-01-08T13:16:27.532Z,72.72
2023-01-08T13:18:55.572Z,72.83
2023-01-08T13:21:23.518Z,74.40
2023-01-08T13:23:51.437Z,74.66
2023-01-08T13:26:20.092Z,75.23
2023-01-08T13:28:47.970Z,75.90
2023-01-08T13:31:15.710Z,75.48
2023-01-08T13:33:44.673Z,75.32
2023-01-08T13:36:13.082Z,75.56
2023-01-08T13:38:41.591Z,75.59
2023-01-08T13:41:09.679Z,76.23
2023-01-08T13:43:37.516Z,75.56
2023-01-08T13:46:05.950Z,75.96
2023-01-08T13:48:35.098Z,75.37
2023-01-08T13:51:03.832Z,75.02
2023-01-08T13:53:31.589Z,75.20
2023-01-08T13:56:00.066Z,75.58
2023-01-08T13:58:30.206Z,75.41
2023-01-08T14:00:59.294Z,75.16
2023-01-08T14:03:28.160Z,74.88
2023-01-08T14:05:56.127Z,74.80
2023-01-08T14:08:24.475Z,75.26
2023-01-08T14:10:52.540Z,74.77
2023-01-08T14:13:20.721Z,74.97
2023-01-08T14:15:49.167Z,74.59
2023-01-08T14:18:17.350Z,74.21
2023-01-08T14:20:45.275Z,74.20
2023-01-08T14:23:13.454Z,73.53
2023-01-08T14:25:41.459Z,72.50
2023-01-08T14:28:09.713Z,71.80
2023-01-08T14:30:38.121Z,71.68
2023-01-08T14:33:06.210Z,71.84
2023-01-08T14:35:34.193Z,72.16
2023-01-08T14:38:03.318Z,72.81
2023-01-08T14:40:31.692Z,73.59
2023-01-08T14:42:59.613Z,73.75
2023-01-08T14:45:27.823Z,74.38
2023-01-08T14:47:55.935Z,74.76
2023-01-08T14:50:23.932Z,74.68
2023-01-08T14:52:52.401Z,75.51
2023-01-08T14:55:20.479Z,75.34
2023-01-08T14:57:48.277Z,75.86
2023-01-08T15:00:16.685Z,75.99
2023-01-08T15:02:46.709Z,76.14
2023-01-08T15:05:15.087Z,75.37
2023-01-08T15:07:43.120Z,75.64
2023-01-08T15:10:11.117Z,76.35
2023-01-08T15:12:39.018Z,76.44
2023-01-08T15:15:06.986Z,76.45
2023-01-08T15:17:35.351Z,76.26
2023-01-08T15:20:03.244Z,76.54
2023-01-08T15:22:33.187Z,76.42
2023-01-08T15:25:01.464Z,76.40
2023-01-08T15:27:31.544Z,76.21
2023-01-08T15:30:01.017Z,76.88
2023-01-08T15:32:29.152Z,76.89
2023-01-08T15:34:57.060Z,77.04
2023-01-08T15:37:25.067Z,76.96
2023-01-08T15:39:53.491Z,76.80
2023-01-08T15:42:41.236Z,76.51
2023-01-08T15:45:09.204Z,76.65
2023-01-08T15:47:37.151Z,76.68
2023-01-08T15:50:05.414Z,76.16
2023-01-08T15:52:33.476Z,76.31
2023-01-08T15:55:02.370Z,76.01
2023-01-08T15:57:30.782Z,76.27
2023-01-08T15:59:58.662Z,76.51
2023-01-08T16:02:27.114Z,75.92
2023-01-08T16:04:55.440Z,75.95
2023-01-08T16:07:24.327Z,76.39
2023-01-08T16:09:52.136Z,76.06
2023-01-08T16:12:20.059Z,76.32
2023-01-08T16:14:48.508Z,76.90
2023-01-08T16:17:16.569Z,76.88
2023-01-08T16:19:45.232Z,77.13
2023-01-08T16:22:13.247Z,77.05
2023-01-08T16:24:41.202Z,77.40
2023-01-08T16:27:11.184Z,77.04
2023-01-08T16:29:39.445Z,77.02
2023-01-08T16:32:07.711Z,77.04
2023-01-08T16:34:35.746Z,77.10
2023-01-08T16:37:03.845Z,76.83
2023-01-08T16:39:32.386Z,76.74
2023-01-08T16:42:00.291Z,77.10
2023-01-08T16:44:29.351Z,76.75
2023-01-08T16:46:57.234Z,77.18
2023-01-08T16:49:25.269Z,76.75
2023-01-08T16:51:53.435Z,77.48
2023-01-08T16:54:21.887Z,77.68
2023-01-08T16:56:50.297Z,77.93
2023-01-08T16:59:23.809Z,78.41
2023-01-08T17:01:51.992Z,78.46
2023-01-08T17:04:20.238Z,78.97
2023-01-08T17:06:48.238Z,78.60
2023-01-08T17:09:16.440Z,78.13
2023-01-08T17:11:46.088Z,78.33
2023-01-08T17:14:14.240Z,78.55
2023-01-08T17:16:43.069Z,78.33
2023-01-08T17:19:11.215Z,78.52
2023-01-08T17:21:39.584Z,78.38
2023-01-08T17:24:07.519Z,78.18
2023-01-08T17:26:35.583Z,77.75
2023-01-08T17:29:03.708Z,78.41
2023-01-08T17:31:36.934Z,77.84
2023-01-08T17:34:05.327Z,78.50
2023-01-08T17:36:34.299Z,78.03
2023-01-08T17:39:02.372Z,78.48
2023-01-08T17:41:47.450Z,77.97
2023-01-08T17:44:16.353Z,78.09
2023-01-08T17:46:45.464Z,77.98
2023-01-08T17:49:13.367Z,77.97
2023-01-08T17:51:42.427Z,77.95
2023-01-08T17:54:10.421Z,77.76
2023-01-08T17:56:38.628Z,77.91
2023-01-08T17:59:06.692Z,77.46
2023-01-08T18:01:35.452Z,77.82
2023-01-08T18:04:03.508Z,78.00
2023-01-08T18:06:31.446Z,78.17
2023-01-08T18:09:00.477Z,77.88
2023-01-08T18:11:28.447Z,77.71
2023-01-08T18:13:56.861Z,78.04
2023-01-08T18:16:25.035Z,77.95
2023-01-08T18:18:53.026Z,78.17
2023-01-08T18:21:21.677Z,78.28
2023-01-08T18:23:49.629Z,77.81
2023-01-08T18:26:17.518Z,78.14
2023-01-08T18:28:45.634Z,77.84
2023-01-08T18:31:13.550Z,77.88
2023-01-08T18:33:42.523Z,77.78
2023-01-08T18:36:11.081Z,78.33
2023-01-08T18:38:38.966Z,77.73
2023-01-08T18:41:06.783Z,78.21
2023-01-08T18:43:35.787Z,78.00
2023-01-08T18:46:05.525Z,77.82
2023-01-08T18:48:33.499Z,77.98
2023-01-08T18:51:05.660Z,77.92
2023-01-08T18:53:33.574Z,77.75
2023-01-08T18:56:01.555Z,77.30
2023-01-08T18:58:30.041Z,77.63
2023-01-08T19:00:57.983Z,77.27
2023-01-08T19:03:25.863Z,77.37
2023-01-08T19:05:53.911Z,77.41
2023-01-08T19:08:21.703Z,77.43
2023-01-08T19:10:50.509Z,77.27
2023-01-08T19:13:19.448Z,77.50
2023-01-08T19:15:47.319Z,77.72
2023-01-08T19:18:15.203Z,77.36
2023-01-08T19:20:43.540Z,77.37
2023-01-08T19:23:12.150Z,77.16
2023-01-08T19:25:40.026Z,77.19
2023-01-08T19:28:07.966Z,77.34
2023-01-08T19:30:35.892Z,77.25
2023-01-08T19:33:03.864Z,76.91
2023-01-08T19:35:32.541Z,77.13
2023-01-08T19:38:00.498Z,77.08
2023-01-08T19:40:28.721Z,76.96
2023-01-08T19:43:14.245Z,76.82
2023-01-08T19:45:43.356Z,77.56
2023-01-08T19:48:11.146Z,77.12
2023-01-08T19:50:39.276Z,77.29
2023-01-08T19:53:07.163Z,77.23
2023-01-08T19:55:35.199Z,77.27
2023-01-08T19:58:03.914Z,77.41
2023-01-08T20:00:37.582Z,77.69
2023-01-08T20:03:05.652Z,77.20
2023-01-08T20:05:33.521Z,77.00
2023-01-08T20:08:01.465Z,76.74
2023-01-08T20:10:29.707Z,76.75
2023-01-08T20:12:57.556Z,76.57
2023-01-08T20:15:25.465Z,76.34
2023-01-08T20:17:53.591Z,76.90
2023-01-08T20:20:21.400Z,76.67
2023-01-08T20:22:51.422Z,75.87
2023-01-08T20:25:19.354Z,76.16
2023-01-08T20:27:47.200Z,75.90
2023-01-08T20:30:15.321Z,76.47
2023-01-08T20:32:43.262Z,76.09
2023-01-08T20:35:11.597Z,75.58
2023-01-08T20:37:39.566Z,75.93
2023-01-08T20:40:07.516Z,75.67
2023-01-08T20:42:35.404Z,75.65
2023-01-08T20:45:03.798Z,75.49
2023-01-08T20:47:32.513Z,75.12
2023-01-08T20:50:03.187Z,75.60
2023-01-08T20:52:33.017Z,75.15
2023-01-08T20:55:00.840Z,75.52
2023-01-08T20:57:28.728Z,75.19
2023-01-08T20:59:57.476Z,75.74
2023-01-08T21:02:25.461Z,75.44
2023-01-08T21:04:55.205Z,75.69
2023-01-08T21:07:23.725Z,75.79
2023-01-08T21:09:51.649Z,75.88
2023-01-08T21:12:20.272Z,75.85
2023-01-08T21:14:48.363Z,76.13
2023-01-08T21:17:16.309Z,76.17
2023-01-08T21:19:44.341Z,76.05
2023-01-08T21:22:12.361Z,76.00
2023-01-08T21:24:40.589Z,75.62
2023-01-08T21:27:08.467Z,75.81
2023-01-08T21:29:36.863Z,75.57
2023-01-08T21:32:05.513Z,75.50
2023-01-08T21:34:33.534Z,75.83
2023-01-08T21:37:05.213Z,75.68
2023-01-08T21:39:33.286Z,75.27
2023-01-08T21:42:14.878Z,76.03
2023-01-08T21:45:08.479Z,75.47
2023-01-08T21:47:37.395Z,75.70
2023-01-08T21:50:05.342Z,75.84
2023-01-08T21:52:50.717Z,75.57
2023-01-08T21:55:18.670Z,75.17
2023-01-08T21:57:47.085Z,75.62
2023-01-08T22:00:15.116Z,75.56
2023-01-08T22:02:43.145Z,75.74
2023-01-08T22:05:11.016Z,75.89
2023-01-08T22:07:39.094Z,75.85
2023-01-08T22:10:08.908Z,75.38
2023-01-08T22:12:36.862Z,76.07
2023-01-08T22:15:05.009Z,75.07
2023-01-08T22:17:32.834Z,75.39
2023-01-08T22:20:01.661Z,75.68
2023-01-08T22:22:30.267Z,75.28
2023-01-08T22:24:58.106Z,75.05
2023-01-08T22:27:25.849Z,75.19
2023-01-08T22:29:54.891Z,75.26
2023-01-08T22:32:23.047Z,75.34
2023-01-08T22:34:52.207Z,75.35
2023-01-08T22:37:22.238Z,75.03
2023-01-08T22:39:50.231Z,75.33
2023-01-08T22:42:18.209Z,75.35
2023-01-08T22:44:46.148Z,75.10
2023-01-08T22:47:14.091Z,75.43
2023-01-08T22:49:41.829Z,75.86
2023-01-08T22:52:10.342Z,75.73
2023-01-08T22:54:38.628Z,75.48
2023-01-08T22:57:06.341Z,75.34
2023-01-08T22:59:34.517Z,75.70
2023-01-08T23:02:02.292Z,76.03
2023-01-08T23:04:29.989Z,75.58
2023-01-08T23:06:57.788Z,75.81
2023-01-08T23:09:25.910Z,75.55
2023-01-08T23:11:54.653Z,75.98
2023-01-08T23:14:22.423Z,75.78
2023-01-08T23:16:50.373Z,76.09
2023-01-08T23:19:18.277Z,75.87
2023-01-08T23:21:46.045Z,75.73
2023-01-08T23:24:14.407Z,75.79
2023-01-08T23:26:42.125Z,75.69
2023-01-08T23:29:10.792Z,75.54
2023-01-08T23:31:38.999Z,75.97
2023-01-08T23:34:06.741Z,75.85
2023-01-08T23:36:36.407Z,76.00
2023-01-08T23:39:04.271Z,76.30
2023-01-08T23:41:35.467Z,76.04
2023-01-08T23:44:03.364Z,76.21
2023-01-08T23:46:31.106Z,75.94
2023-01-08T23:48:59.524Z,75.96
2023-01-08T23:51:27.307Z,76.58
2023-01-08T23:53:54.999Z,76.18
2023-01-08T23:56:22.639Z,76.80
2023-01-08T23:58:50.371Z,76.71
